sensor_id;sensor_type;location;lat;lon;timestamp;P1;P2;P0
42410;PMS5003;28056;51.112;0.984;2023-05-07T00:04:50;20;19;
42410;PMS5003;28056;51.112;0.984;2023-05-07T00:07:17;26;23;
42410;PMS5003;28056;51.112;0.984;2023-05-07T00:09:45;26;26;
42410;PMS5003;28056;51.112;0.984;2023-05-07T00:12:12;19;19;
42410;PMS5003;28056;51.112;0.984;2023-05-07T00:14:40;23;20;
42410;PMS5003;28056;51.112;0.984;2023-05-07T00:17:08;18;18;
42410;PMS5003;28056;51.112;0.984;2023-05-07T00:19:36;22;22;
42410;PMS5003;28056;51.112;0.984;2023-05-07T00:22:03;24;21;
42410;PMS5003;28056;51.112;0.984;2023-05-07T00:24:31;21;19;
42410;PMS5003;28056;51.112;0.984;2023-05-07T00:26:58;18;18;
42410;PMS5003;28056;51.112;0.984;2023-05-07T00:29:25;24;22;
42410;PMS5003;28056;51.112;0.984;2023-05-07T00:31:52;23;21;
42410;PMS5003;28056;51.112;0.984;2023-05-07T00:34:20;22;16;
42410;PMS5003;28056;51.112;0.984;2023-05-07T00:36:48;21;18;
42410;PMS5003;28056;51.112;0.984;2023-05-07T00:39:15;22;22;
42410;PMS5003;28056;51.112;0.984;2023-05-07T00:41:42;23;20;
42410;PMS5003;28056;51.112;0.984;2023-05-07T00:44:09;18;18;
42410;PMS5003;28056;51.112;0.984;2023-05-07T00:46:37;20;18;
42410;PMS5003;28056;51.112;0.984;2023-05-07T00:49:04;21;20;
42410;PMS5003;28056;51.112;0.984;2023-05-07T00:51:33;25;22;
42410;PMS5003;28056;51.112;0.984;2023-05-07T00:54:02;20;18;
42410;PMS5003;28056;51.112;0.984;2023-05-07T00:56:29;22;19;
42410;PMS5003;28056;51.112;0.984;2023-05-07T00:58:57;23;19;
42410;PMS5003;28056;51.112;0.984;2023-05-07T01:01:25;28;24;
42410;PMS5003;28056;51.112;0.984;2023-05-07T01:03:52;20;18;
42410;PMS5003;28056;51.112;0.984;2023-05-07T01:06:20;18;15;
42410;PMS5003;28056;51.112;0.984;2023-05-07T01:08:50;22;20;
42410;PMS5003;28056;51.112;0.984;2023-05-07T01:11:18;16;16;
42410;PMS5003;28056;51.112;0.984;2023-05-07T01:13:46;19;19;
42410;PMS5003;28056;51.112;0.984;2023-05-07T01:16:14;21;18;
42410;PMS5003;28056;51.112;0.984;2023-05-07T01:18:42;18;18;
42410;PMS5003;28056;51.112;0.984;2023-05-07T01:21:11;19;17;
42410;PMS5003;28056;51.112;0.984;2023-05-07T01:23:39;20;20;
42410;PMS5003;28056;51.112;0.984;2023-05-07T01:26:08;15;15;
42410;PMS5003;28056;51.112;0.984;2023-05-07T01:28:35;26;21;
42410;PMS5003;28056;51.112;0.984;2023-05-07T01:31:03;26;20;
42410;PMS5003;28056;51.112;0.984;2023-05-07T01:33:32;14;14;
42410;PMS5003;28056;51.112;0.984;2023-05-07T01:36:01;19;17;
42410;PMS5003;28056;51.112;0.984;2023-05-07T01:38:31;17;17;
42410;PMS5003;28056;51.112;0.984;2023-05-07T01:41:00;18;18;
42410;PMS5003;28056;51.112;0.984;2023-05-07T01:43:28;15;15;
42410;PMS5003;28056;51.112;0.984;2023-05-07T01:45:57;15;15;
42410;PMS5003;28056;51.112;0.984;2023-05-07T01:48:25;13;13;
42410;PMS5003;28056;51.112;0.984;2023-05-07T01:50:52;18;16;
42410;PMS5003;28056;51.112;0.984;2023-05-07T01:53:21;14;14;
42410;PMS5003;28056;51.112;0.984;2023-05-07T01:55:48;19;17;
42410;PMS5003;28056;51.112;0.984;2023-05-07T01:58:15;19;15;
42410;PMS5003;28056;51.112;0.984;2023-05-07T02:00:43;21;20;
42410;PMS5003;28056;51.112;0.984;2023-05-07T02:03:10;17;17;
42410;PMS5003;28056;51.112;0.984;2023-05-07T02:05:38;19;16;
42410;PMS5003;28056;51.112;0.984;2023-05-07T02:08:06;21;21;
42410;PMS5003;28056;51.112;0.984;2023-05-07T02:10:33;22;20;
42410;PMS5003;28056;51.112;0.984;2023-05-07T02:13:00;22;19;
42410;PMS5003;28056;51.112;0.984;2023-05-07T02:15:27;23;19;
42410;PMS5003;28056;51.112;0.984;2023-05-07T02:17:58;20;19;
42410;PMS5003;28056;51.112;0.984;2023-05-07T02:20:26;16;15;
42410;PMS5003;28056;51.112;0.984;2023-05-07T02:22:53;20;20;
42410;PMS5003;28056;51.112;0.984;2023-05-07T02:25:21;21;15;
42410;PMS5003;28056;51.112;0.984;2023-05-07T02:27:48;20;19;
42410;PMS5003;28056;51.112;0.984;2023-05-07T02:30:16;21;18;
42410;PMS5003;28056;51.112;0.984;2023-05-07T02:32:43;25;22;
42410;PMS5003;28056;51.112;0.984;2023-05-07T02:35:10;20;19;
42410;PMS5003;28056;51.112;0.984;2023-05-07T02:37:38;22;18;
42410;PMS5003;28056;51.112;0.984;2023-05-07T02:40:06;18;16;
42410;PMS5003;28056;51.112;0.984;2023-05-07T02:42:33;25;21;
42410;PMS5003;28056;51.112;0.984;2023-05-07T02:45:01;21;21;
42410;PMS5003;28056;51.112;0.984;2023-05-07T02:47:29;26;25;
42410;PMS5003;28056;51.112;0.984;2023-05-07T02:49:56;30;26;
42410;PMS5003;28056;51.112;0.984;2023-05-07T02:52:23;26;23;
42410;PMS5003;28056;51.112;0.984;2023-05-07T02:54:50;21;21;
42410;PMS5003;28056;51.112;0.984;2023-05-07T02:57:18;28;24;
42410;PMS5003;28056;51.112;0.984;2023-05-07T02:59:44;28;23;
42410;PMS5003;28056;51.112;0.984;2023-05-07T03:02:12;27;26;
42410;PMS5003;28056;51.112;0.984;2023-05-07T03:04:39;29;25;
42410;PMS5003;28056;51.112;0.984;2023-05-07T03:07:07;26;22;
42410;PMS5003;28056;51.112;0.984;2023-05-07T03:09:35;22;20;
42410;PMS5003;28056;51.112;0.984;2023-05-07T03:12:03;22;21;
42410;PMS5003;28056;51.112;0.984;2023-05-07T03:14:30;21;21;
42410;PMS5003;28056;51.112;0.984;2023-05-07T03:16:57;23;17;
42410;PMS5003;28056;51.112;0.984;2023-05-07T03:19:24;20;20;
42410;PMS5003;28056;51.112;0.984;2023-05-07T03:21:51;26;18;
42410;PMS5003;28056;51.112;0.984;2023-05-07T03:24:18;25;21;
42410;PMS5003;28056;51.112;0.984;2023-05-07T03:26:46;27;23;
42410;PMS5003;28056;51.112;0.984;2023-05-07T03:29:13;21;20;
42410;PMS5003;28056;51.112;0.984;2023-05-07T03:31:41;26;26;
42410;PMS5003;28056;51.112;0.984;2023-05-07T03:34:08;23;22;
42410;PMS5003;28056;51.112;0.984;2023-05-07T03:36:36;20;20;
42410;PMS5003;28056;51.112;0.984;2023-05-07T03:39:03;23;20;
42410;PMS5003;28056;51.112;0.984;2023-05-07T03:41:32;21;20;
42410;PMS5003;28056;51.112;0.984;2023-05-07T03:44:00;21;21;
42410;PMS5003;28056;51.112;0.984;2023-05-07T03:46:27;22;20;
42410;PMS5003;28056;51.112;0.984;2023-05-07T03:48:54;21;18;
42410;PMS5003;28056;51.112;0.984;2023-05-07T03:51:21;20;19;
42410;PMS5003;28056;51.112;0.984;2023-05-07T03:53:48;19;19;
42410;PMS5003;28056;51.112;0.984;2023-05-07T03:56:16;18;18;
42410;PMS5003;28056;51.112;0.984;2023-05-07T03:58:43;27;19;
42410;PMS5003;28056;51.112;0.984;2023-05-07T04:01:10;22;22;
42410;PMS5003;28056;51.112;0.984;2023-05-07T04:03:38;27;23;
42410;PMS5003;28056;51.112;0.984;2023-05-07T04:06:06;27;23;
42410;PMS5003;28056;51.112;0.984;2023-05-07T04:08:33;24;20;
42410;PMS5003;28056;51.112;0.984;2023-05-07T04:11:01;20;20;
42410;PMS5003;28056;51.112;0.984;2023-05-07T04:13:29;21;19;
42410;PMS5003;28056;51.112;0.984;2023-05-07T04:15:57;22;21;
42410;PMS5003;28056;51.112;0.984;2023-05-07T04:18:24;22;20;
42410;PMS5003;28056;51.112;0.984;2023-05-07T04:20:52;23;20;
42410;PMS5003;28056;51.112;0.984;2023-05-07T04:23:19;22;19;
42410;PMS5003;28056;51.112;0.984;2023-05-07T04:25:46;18;18;
42410;PMS5003;28056;51.112;0.984;2023-05-07T04:28:13;20;17;
42410;PMS5003;28056;51.112;0.984;2023-05-07T04:30:41;23;23;
42410;PMS5003;28056;51.112;0.984;2023-05-07T04:33:08;22;21;
42410;PMS5003;28056;51.112;0.984;2023-05-07T04:35:36;26;21;
42410;PMS5003;28056;51.112;0.984;2023-05-07T04:38:03;22;18;
42410;PMS5003;28056;51.112;0.984;2023-05-07T04:40:31;21;18;
42410;PMS5003;28056;51.112;0.984;2023-05-07T04:42:59;23;21;
42410;PMS5003;28056;51.112;0.984;2023-05-07T04:45:26;19;19;
42410;PMS5003;28056;51.112;0.984;2023-05-07T04:47:53;22;22;
42410;PMS5003;28056;51.112;0.984;2023-05-07T04:50:21;23;22;
42410;PMS5003;28056;51.112;0.984;2023-05-07T04:52:49;23;20;
42410;PMS5003;28056;51.112;0.984;2023-05-07T04:55:16;28;24;
42410;PMS5003;28056;51.112;0.984;2023-05-07T04:57:43;22;16;
42410;PMS5003;28056;51.112;0.984;2023-05-07T05:00:11;21;18;
42410;PMS5003;28056;51.112;0.984;2023-05-07T05:02:39;22;21;
42410;PMS5003;28056;51.112;0.984;2023-05-07T05:05:07;23;19;
42410;PMS5003;28056;51.112;0.984;2023-05-07T05:07:35;19;19;
42410;PMS5003;28056;51.112;0.984;2023-05-07T05:10:02;22;20;
42410;PMS5003;28056;51.112;0.984;2023-05-07T05:12:31;24;19;
42410;PMS5003;28056;51.112;0.984;2023-05-07T05:14:59;20;18;
42410;PMS5003;28056;51.112;0.984;2023-05-07T05:17:27;20;18;
42410;PMS5003;28056;51.112;0.984;2023-05-07T05:19:54;23;20;
42410;PMS5003;28056;51.112;0.984;2023-05-07T05:22:22;24;21;
42410;PMS5003;28056;51.112;0.984;2023-05-07T05:24:51;20;18;
42410;PMS5003;28056;51.112;0.984;2023-05-07T05:27:18;20;19;
42410;PMS5003;28056;51.112;0.984;2023-05-07T05:29:46;20;17;
42410;PMS5003;28056;51.112;0.984;2023-05-07T05:32:13;23;19;
42410;PMS5003;28056;51.112;0.984;2023-05-07T05:34:40;23;20;
42410;PMS5003;28056;51.112;0.984;2023-05-07T05:37:07;28;24;
42410;PMS5003;28056;51.112;0.984;2023-05-07T05:39:35;27;23;
42410;PMS5003;28056;51.112;0.984;2023-05-07T05:42:03;31;24;
42410;PMS5003;28056;51.112;0.984;2023-05-07T05:44:31;26;24;
42410;PMS5003;28056;51.112;0.984;2023-05-07T05:46:59;22;21;
42410;PMS5003;28056;51.112;0.984;2023-05-07T05:49:26;25;23;
42410;PMS5003;28056;51.112;0.984;2023-05-07T05:51:53;25;22;
42410;PMS5003;28056;51.112;0.984;2023-05-07T05:54:21;23;22;
42410;PMS5003;28056;51.112;0.984;2023-05-07T05:56:48;23;20;
42410;PMS5003;28056;51.112;0.984;2023-05-07T05:59:16;26;25;
42410;PMS5003;28056;51.112;0.984;2023-05-07T06:01:43;27;24;
42410;PMS5003;28056;51.112;0.984;2023-05-07T06:04:10;25;22;
42410;PMS5003;28056;51.112;0.984;2023-05-07T06:06:37;25;23;
42410;PMS5003;28056;51.112;0.984;2023-05-07T06:09:05;31;25;
42410;PMS5003;28056;51.112;0.984;2023-05-07T06:11:32;23;23;
42410;PMS5003;28056;51.112;0.984;2023-05-07T06:13:59;23;20;
42410;PMS5003;28056;51.112;0.984;2023-05-07T06:16:27;29;25;
42410;PMS5003;28056;51.112;0.984;2023-05-07T06:18:55;25;24;
42410;PMS5003;28056;51.112;0.984;2023-05-07T06:21:22;29;23;
42410;PMS5003;28056;51.112;0.984;2023-05-07T06:23:49;26;22;
42410;PMS5003;28056;51.112;0.984;2023-05-07T06:26:16;30;27;
42410;PMS5003;28056;51.112;0.984;2023-05-07T06:28:43;31;28;
42410;PMS5003;28056;51.112;0.984;2023-05-07T06:31:16;28;26;
42410;PMS5003;28056;51.112;0.984;2023-05-07T06:33:45;31;29;
42410;PMS5003;28056;51.112;0.984;2023-05-07T06:36:13;42;30;
42410;PMS5003;28056;51.112;0.984;2023-05-07T06:38:40;34;33;
42410;PMS5003;28056;51.112;0.984;2023-05-07T06:41:07;28;26;
42410;PMS5003;28056;51.112;0.984;2023-05-07T06:43:35;33;28;
42410;PMS5003;28056;51.112;0.984;2023-05-07T06:46:02;33;28;
42410;PMS5003;28056;51.112;0.984;2023-05-07T06:48:30;30;26;
42410;PMS5003;28056;51.112;0.984;2023-05-07T06:50:57;27;25;
42410;PMS5003;28056;51.112;0.984;2023-05-07T06:53:25;20;20;
42410;PMS5003;28056;51.112;0.984;2023-05-07T06:55:51;31;26;
42410;PMS5003;28056;51.112;0.984;2023-05-07T06:58:18;21;17;
42410;PMS5003;28056;51.112;0.984;2023-05-07T07:00:45;24;19;
42410;PMS5003;28056;51.112;0.984;2023-05-07T07:03:12;17;16;
42410;PMS5003;28056;51.112;0.984;2023-05-07T07:05:40;21;19;
42410;PMS5003;28056;51.112;0.984;2023-05-07T07:08:07;27;22;
42410;PMS5003;28056;51.112;0.984;2023-05-07T07:10:36;18;17;
42410;PMS5003;28056;51.112;0.984;2023-05-07T07:13:03;15;15;
42410;PMS5003;28056;51.112;0.984;2023-05-07T07:15:31;21;18;
42410;PMS5003;28056;51.112;0.984;2023-05-07T07:17:58;17;17;
42410;PMS5003;28056;51.112;0.984;2023-05-07T07:20:25;20;18;
42410;PMS5003;28056;51.112;0.984;2023-05-07T07:22:53;14;14;
42410;PMS5003;28056;51.112;0.984;2023-05-07T07:25:20;11;11;
42410;PMS5003;28056;51.112;0.984;2023-05-07T07:27:48;17;14;
42410;PMS5003;28056;51.112;0.984;2023-05-07T07:30:16;17;15;
42410;PMS5003;28056;51.112;0.984;2023-05-07T07:32:44;15;14;
42410;PMS5003;28056;51.112;0.984;2023-05-07T07:35:11;13;12;
42410;PMS5003;28056;51.112;0.984;2023-05-07T07:37:39;14;13;
42410;PMS5003;28056;51.112;0.984;2023-05-07T07:40:06;16;15;
42410;PMS5003;28056;51.112;0.984;2023-05-07T07:42:34;16;15;
42410;PMS5003;28056;51.112;0.984;2023-05-07T07:45:02;16;16;
42410;PMS5003;28056;51.112;0.984;2023-05-07T07:47:29;18;14;
42410;PMS5003;28056;51.112;0.984;2023-05-07T07:49:56;23;13;
42410;PMS5003;28056;51.112;0.984;2023-05-07T07:52:23;13;11;
42410;PMS5003;28056;51.112;0.984;2023-05-07T07:54:51;14;14;
42410;PMS5003;28056;51.112;0.984;2023-05-07T07:57:18;16;13;
42410;PMS5003;28056;51.112;0.984;2023-05-07T07:59:45;18;13;
42410;PMS5003;28056;51.112;0.984;2023-05-07T08:02:13;13;13;
42410;PMS5003;28056;51.112;0.984;2023-05-07T08:04:41;16;14;
42410;PMS5003;28056;51.112;0.984;2023-05-07T08:07:08;19;18;
42410;PMS5003;28056;51.112;0.984;2023-05-07T08:09:36;13;13;
42410;PMS5003;28056;51.112;0.984;2023-05-07T08:12:04;14;12;
42410;PMS5003;28056;51.112;0.984;2023-05-07T08:14:32;12;12;
42410;PMS5003;28056;51.112;0.984;2023-05-07T08:17:00;11;10;
42410;PMS5003;28056;51.112;0.984;2023-05-07T08:19:28;13;13;
42410;PMS5003;28056;51.112;0.984;2023-05-07T08:21:55;13;13;
42410;PMS5003;28056;51.112;0.984;2023-05-07T08:24:23;15;14;
42410;PMS5003;28056;51.112;0.984;2023-05-07T08:26:51;14;14;
42410;PMS5003;28056;51.112;0.984;2023-05-07T08:29:18;13;9;
42410;PMS5003;28056;51.112;0.984;2023-05-07T08:31:46;13;10;
42410;PMS5003;28056;51.112;0.984;2023-05-07T08:34:13;14;12;
42410;PMS5003;28056;51.112;0.984;2023-05-07T08:36:41;10;10;
42410;PMS5003;28056;51.112;0.984;2023-05-07T08:39:08;11;8;
42410;PMS5003;28056;51.112;0.984;2023-05-07T08:41:36;9;9;
42410;PMS5003;28056;51.112;0.984;2023-05-07T08:44:04;10;10;
42410;PMS5003;28056;51.112;0.984;2023-05-07T08:46:38;8;8;
42410;PMS5003;28056;51.112;0.984;2023-05-07T08:49:07;15;11;
42410;PMS5003;28056;51.112;0.984;2023-05-07T08:51:35;10;9;
42410;PMS5003;28056;51.112;0.984;2023-05-07T08:54:03;11;9;
42410;PMS5003;28056;51.112;0.984;2023-05-07T08:56:31;8;8;
42410;PMS5003;28056;51.112;0.984;2023-05-07T08:58:59;10;9;
42410;PMS5003;28056;51.112;0.984;2023-05-07T09:01:26;9;7;
42410;PMS5003;28056;51.112;0.984;2023-05-07T09:03:54;9;9;
42410;PMS5003;28056;51.112;0.984;2023-05-07T09:06:21;9;7;
42410;PMS5003;28056;51.112;0.984;2023-05-07T09:08:49;9;8;
42410;PMS5003;28056;51.112;0.984;2023-05-07T09:11:19;7;6;
42410;PMS5003;28056;51.112;0.984;2023-05-07T09:13:47;9;7;
42410;PMS5003;28056;51.112;0.984;2023-05-07T09:16:14;11;9;
42410;PMS5003;28056;51.112;0.984;2023-05-07T09:18:42;9;7;
42410;PMS5003;28056;51.112;0.984;2023-05-07T09:21:10;10;10;
42410;PMS5003;28056;51.112;0.984;2023-05-07T09:23:41;7;7;
42410;PMS5003;28056;51.112;0.984;2023-05-07T09:26:09;11;6;
42410;PMS5003;28056;51.112;0.984;2023-05-07T09:28:38;6;6;
42410;PMS5003;28056;51.112;0.984;2023-05-07T09:31:06;5;5;
42410;PMS5003;28056;51.112;0.984;2023-05-07T09:33:33;6;6;
42410;PMS5003;28056;51.112;0.984;2023-05-07T09:36:03;7;7;
42410;PMS5003;28056;51.112;0.984;2023-05-07T09:38:31;7;7;
42410;PMS5003;28056;51.112;0.984;2023-05-07T09:41:02;7;7;
42410;PMS5003;28056;51.112;0.984;2023-05-07T09:43:32;8;8;
42410;PMS5003;28056;51.112;0.984;2023-05-07T09:46:01;8;6;
42410;PMS5003;28056;51.112;0.984;2023-05-07T09:48:30;6;5;
42410;PMS5003;28056;51.112;0.984;2023-05-07T09:51:00;6;6;
42410;PMS5003;28056;51.112;0.984;2023-05-07T09:53:33;7;7;
42410;PMS5003;28056;51.112;0.984;2023-05-07T09:56:01;8;8;
42410;PMS5003;28056;51.112;0.984;2023-05-07T09:58:30;7;7;
42410;PMS5003;28056;51.112;0.984;2023-05-07T10:00:59;7;7;
42410;PMS5003;28056;51.112;0.984;2023-05-07T10:03:28;6;6;
42410;PMS5003;28056;51.112;0.984;2023-05-07T10:05:58;6;6;
42410;PMS5003;28056;51.112;0.984;2023-05-07T10:08:25;7;6;
42410;PMS5003;28056;51.112;0.984;2023-05-07T10:10:54;9;9;
42410;PMS5003;28056;51.112;0.984;2023-05-07T10:13:21;10;8;
42410;PMS5003;28056;51.112;0.984;2023-05-07T10:15:49;8;8;
42410;PMS5003;28056;51.112;0.984;2023-05-07T10:18:18;9;9;
42410;PMS5003;28056;51.112;0.984;2023-05-07T10:20:47;10;10;
42410;PMS5003;28056;51.112;0.984;2023-05-07T10:23:18;12;9;
42410;PMS5003;28056;51.112;0.984;2023-05-07T10:25:50;9;9;
42410;PMS5003;28056;51.112;0.984;2023-05-07T10:28:17;6;6;
42410;PMS5003;28056;51.112;0.984;2023-05-07T10:30:51;5;5;
42410;PMS5003;28056;51.112;0.984;2023-05-07T10:33:29;5;5;
42410;PMS5003;28056;51.112;0.984;2023-05-07T10:35:59;5;5;
42410;PMS5003;28056;51.112;0.984;2023-05-07T10:38:27;6;6;
42410;PMS5003;28056;51.112;0.984;2023-05-07T10:40:55;10;7;
42410;PMS5003;28056;51.112;0.984;2023-05-07T10:43:22;5;5;
42410;PMS5003;28056;51.112;0.984;2023-05-07T10:46:09;5;5;
42410;PMS5003;28056;51.112;0.984;2023-05-07T10:49:06;8;6;
42410;PMS5003;28056;51.112;0.984;2023-05-07T10:51:34;8;8;
42410;PMS5003;28056;51.112;0.984;2023-05-07T10:54:33;7;6;
42410;PMS5003;28056;51.112;0.984;2023-05-07T10:57:14;8;8;
42410;PMS5003;28056;51.112;0.984;2023-05-07T11:00:00;9;8;
42410;PMS5003;28056;51.112;0.984;2023-05-07T11:03:04;10;7;
42410;PMS5003;28056;51.112;0.984;2023-05-07T11:05:32;9;9;
42410;PMS5003;28056;51.112;0.984;2023-05-07T11:08:01;7;7;
42410;PMS5003;28056;51.112;0.984;2023-05-07T11:11:01;7;7;
42410;PMS5003;28056;51.112;0.984;2023-05-07T11:13:45;7;7;
42410;PMS5003;28056;51.112;0.984;2023-05-07T11:16:17;6;6;
42410;PMS5003;28056;51.112;0.984;2023-05-07T11:18:46;9;9;
42410;PMS5003;28056;51.112;0.984;2023-05-07T11:21:16;9;9;
42410;PMS5003;28056;51.112;0.984;2023-05-07T11:24:00;10;10;
42410;PMS5003;28056;51.112;0.984;2023-05-07T11:26:29;8;8;
42410;PMS5003;28056;51.112;0.984;2023-05-07T11:29:10;7;7;
42410;PMS5003;28056;51.112;0.984;2023-05-07T11:31:38;8;8;
42410;PMS5003;28056;51.112;0.984;2023-05-07T11:34:06;11;9;
42410;PMS5003;28056;51.112;0.984;2023-05-07T11:36:34;10;8;
42410;PMS5003;28056;51.112;0.984;2023-05-07T11:39:22;11;10;
42410;PMS5003;28056;51.112;0.984;2023-05-07T11:41:51;13;10;
42410;PMS5003;28056;51.112;0.984;2023-05-07T11:44:18;12;10;
42410;PMS5003;28056;51.112;0.984;2023-05-07T11:46:45;9;8;
42410;PMS5003;28056;51.112;0.984;2023-05-07T11:49:12;11;11;
42410;PMS5003;28056;51.112;0.984;2023-05-07T11:51:40;8;8;
42410;PMS5003;28056;51.112;0.984;2023-05-07T11:54:09;9;8;
42410;PMS5003;28056;51.112;0.984;2023-05-07T11:56:37;12;11;
42410;PMS5003;28056;51.112;0.984;2023-05-07T11:59:04;11;11;
42410;PMS5003;28056;51.112;0.984;2023-05-07T12:01:34;14;13;
42410;PMS5003;28056;51.112;0.984;2023-05-07T12:04:03;15;14;
42410;PMS5003;28056;51.112;0.984;2023-05-07T12:06:30;16;14;
42410;PMS5003;28056;51.112;0.984;2023-05-07T12:08:57;15;15;
42410;PMS5003;28056;51.112;0.984;2023-05-07T12:11:25;14;14;
42410;PMS5003;28056;51.112;0.984;2023-05-07T12:13:53;11;11;
42410;PMS5003;28056;51.112;0.984;2023-05-07T12:16:21;13;12;
42410;PMS5003;28056;51.112;0.984;2023-05-07T12:18:48;12;12;
42410;PMS5003;28056;51.112;0.984;2023-05-07T12:21:16;11;11;
42410;PMS5003;28056;51.112;0.984;2023-05-07T12:23:43;12;12;
42410;PMS5003;28056;51.112;0.984;2023-05-07T12:26:11;11;11;
42410;PMS5003;28056;51.112;0.984;2023-05-07T12:28:38;10;10;
42410;PMS5003;28056;51.112;0.984;2023-05-07T12:31:06;13;10;
42410;PMS5003;28056;51.112;0.984;2023-05-07T12:33:34;10;10;
42410;PMS5003;28056;51.112;0.984;2023-05-07T12:36:04;13;11;
42410;PMS5003;28056;51.112;0.984;2023-05-07T12:38:34;10;10;
42410;PMS5003;28056;51.112;0.984;2023-05-07T12:41:02;11;10;
42410;PMS5003;28056;51.112;0.984;2023-05-07T12:43:30;11;11;
42410;PMS5003;28056;51.112;0.984;2023-05-07T12:45:59;11;11;
42410;PMS5003;28056;51.112;0.984;2023-05-07T12:48:28;11;11;
42410;PMS5003;28056;51.112;0.984;2023-05-07T12:50:56;11;11;
42410;PMS5003;28056;51.112;0.984;2023-05-07T12:53:25;10;10;
42410;PMS5003;28056;51.112;0.984;2023-05-07T12:55:53;10;10;
42410;PMS5003;28056;51.112;0.984;2023-05-07T12:58:24;11;10;
42410;PMS5003;28056;51.112;0.984;2023-05-07T13:00:53;11;10;
42410;PMS5003;28056;51.112;0.984;2023-05-07T13:03:22;11;11;
42410;PMS5003;28056;51.112;0.984;2023-05-07T13:05:50;14;13;
42410;PMS5003;28056;51.112;0.984;2023-05-07T13:08:25;14;14;
42410;PMS5003;28056;51.112;0.984;2023-05-07T13:10:54;9;9;
42410;PMS5003;28056;51.112;0.984;2023-05-07T13:13:22;13;13;
42410;PMS5003;28056;51.112;0.984;2023-05-07T13:15:50;11;11;
42410;PMS5003;28056;51.112;0.984;2023-05-07T13:18:17;13;13;
42410;PMS5003;28056;51.112;0.984;2023-05-07T13:20:44;11;11;
42410;PMS5003;28056;51.112;0.984;2023-05-07T13:23:12;10;10;
42410;PMS5003;28056;51.112;0.984;2023-05-07T13:25:40;12;12;
42410;PMS5003;28056;51.112;0.984;2023-05-07T13:28:07;11;10;
42410;PMS5003;28056;51.112;0.984;2023-05-07T13:30:34;12;12;
42410;PMS5003;28056;51.112;0.984;2023-05-07T13:33:02;12;11;
42410;PMS5003;28056;51.112;0.984;2023-05-07T13:35:29;8;8;
42410;PMS5003;28056;51.112;0.984;2023-05-07T13:37:57;11;11;
42410;PMS5003;28056;51.112;0.984;2023-05-07T13:40:24;8;8;
42410;PMS5003;28056;51.112;0.984;2023-05-07T13:42:52;8;8;
42410;PMS5003;28056;51.112;0.984;2023-05-07T13:45:20;10;10;
42410;PMS5003;28056;51.112;0.984;2023-05-07T13:47:48;9;9;
42410;PMS5003;28056;51.112;0.984;2023-05-07T13:50:15;9;7;
42410;PMS5003;28056;51.112;0.984;2023-05-07T13:52:43;9;9;
42410;PMS5003;28056;51.112;0.984;2023-05-07T13:55:11;10;9;
42410;PMS5003;28056;51.112;0.984;2023-05-07T13:57:38;7;7;
42410;PMS5003;28056;51.112;0.984;2023-05-07T14:00:06;9;9;
42410;PMS5003;28056;51.112;0.984;2023-05-07T14:02:35;9;9;
42410;PMS5003;28056;51.112;0.984;2023-05-07T14:05:02;10;9;
42410;PMS5003;28056;51.112;0.984;2023-05-07T14:07:30;7;7;
42410;PMS5003;28056;51.112;0.984;2023-05-07T14:09:58;9;9;
42410;PMS5003;28056;51.112;0.984;2023-05-07T14:12:25;10;10;
42410;PMS5003;28056;51.112;0.984;2023-05-07T14:14:53;11;11;
42410;PMS5003;28056;51.112;0.984;2023-05-07T14:17:20;11;11;
42410;PMS5003;28056;51.112;0.984;2023-05-07T14:19:48;8;8;
42410;PMS5003;28056;51.112;0.984;2023-05-07T14:22:15;10;10;
42410;PMS5003;28056;51.112;0.984;2023-05-07T14:24:42;11;10;
42410;PMS5003;28056;51.112;0.984;2023-05-07T14:27:10;10;9;
42410;PMS5003;28056;51.112;0.984;2023-05-07T14:29:37;8;8;
42410;PMS5003;28056;51.112;0.984;2023-05-07T14:32:10;6;6;
42410;PMS5003;28056;51.112;0.984;2023-05-07T14:34:38;9;7;
42410;PMS5003;28056;51.112;0.984;2023-05-07T14:37:06;8;8;
42410;PMS5003;28056;51.112;0.984;2023-05-07T14:39:33;7;6;
42410;PMS5003;28056;51.112;0.984;2023-05-07T14:42:01;10;9;
42410;PMS5003;28056;51.112;0.984;2023-05-07T14:44:28;6;6;
42410;PMS5003;28056;51.112;0.984;2023-05-07T14:47:01;8;7;
42410;PMS5003;28056;51.112;0.984;2023-05-07T14:49:29;5;5;
42410;PMS5003;28056;51.112;0.984;2023-05-07T14:51:57;8;6;
42410;PMS5003;28056;51.112;0.984;2023-05-07T14:54:25;7;7;
42410;PMS5003;28056;51.112;0.984;2023-05-07T14:56:52;8;8;
42410;PMS5003;28056;51.112;0.984;2023-05-07T14:59:20;7;6;
42410;PMS5003;28056;51.112;0.984;2023-05-07T15:01:47;7;7;
42410;PMS5003;28056;51.112;0.984;2023-05-07T15:04:14;6;6;
42410;PMS5003;28056;51.112;0.984;2023-05-07T15:06:42;4;4;
42410;PMS5003;28056;51.112;0.984;2023-05-07T15:09:10;5;5;
42410;PMS5003;28056;51.112;0.984;2023-05-07T15:11:37;7;6;
42410;PMS5003;28056;51.112;0.984;2023-05-07T15:14:05;5;5;
42410;PMS5003;28056;51.112;0.984;2023-05-07T15:16:32;4;4;
42410;PMS5003;28056;51.112;0.984;2023-05-07T15:18:59;6;6;
42410;PMS5003;28056;51.112;0.984;2023-05-07T15:21:27;5;5;
42410;PMS5003;28056;51.112;0.984;2023-05-07T15:23:54;7;7;
42410;PMS5003;28056;51.112;0.984;2023-05-07T15:26:22;6;6;
42410;PMS5003;28056;51.112;0.984;2023-05-07T15:28:49;6;6;
42410;PMS5003;28056;51.112;0.984;2023-05-07T15:31:17;8;7;
42410;PMS5003;28056;51.112;0.984;2023-05-07T15:33:49;7;7;
42410;PMS5003;28056;51.112;0.984;2023-05-07T15:36:17;6;6;
42410;PMS5003;28056;51.112;0.984;2023-05-07T15:38:44;6;6;
42410;PMS5003;28056;51.112;0.984;2023-05-07T15:41:12;7;7;
42410;PMS5003;28056;51.112;0.984;2023-05-07T15:43:45;4;4;
42410;PMS5003;28056;51.112;0.984;2023-05-07T15:46:17;6;6;
42410;PMS5003;28056;51.112;0.984;2023-05-07T15:48:45;3;3;
42410;PMS5003;28056;51.112;0.984;2023-05-07T15:51:12;5;5;
42410;PMS5003;28056;51.112;0.984;2023-05-07T15:53:40;7;5;
42410;PMS5003;28056;51.112;0.984;2023-05-07T15:56:07;6;6;
42410;PMS5003;28056;51.112;0.984;2023-05-07T15:58:35;6;6;
42410;PMS5003;28056;51.112;0.984;2023-05-07T16:01:02;6;6;
42410;PMS5003;28056;51.112;0.984;2023-05-07T16:03:30;5;5;
42410;PMS5003;28056;51.112;0.984;2023-05-07T16:05:58;4;4;
42410;PMS5003;28056;51.112;0.984;2023-05-07T16:08:26;5;5;
42410;PMS5003;28056;51.112;0.984;2023-05-07T16:10:55;9;9;
42410;PMS5003;28056;51.112;0.984;2023-05-07T16:13:22;6;6;
42410;PMS5003;28056;51.112;0.984;2023-05-07T16:15:54;6;5;
42410;PMS5003;28056;51.112;0.984;2023-05-07T16:18:23;5;5;
42410;PMS5003;28056;51.112;0.984;2023-05-07T16:20:50;7;5;
42410;PMS5003;28056;51.112;0.984;2023-05-07T16:23:18;6;6;
42410;PMS5003;28056;51.112;0.984;2023-05-07T16:25:45;9;7;
42410;PMS5003;28056;51.112;0.984;2023-05-07T16:28:13;6;6;
42410;PMS5003;28056;51.112;0.984;2023-05-07T16:30:41;7;7;
42410;PMS5003;28056;51.112;0.984;2023-05-07T16:33:08;5;5;
42410;PMS5003;28056;51.112;0.984;2023-05-07T16:35:35;6;6;
42410;PMS5003;28056;51.112;0.984;2023-05-07T16:38:03;7;7;
42410;PMS5003;28056;51.112;0.984;2023-05-07T16:40:30;5;5;